createdAt,value
2022-10-10T00:00:12.999Z,8.32
2022-10-10T00:03:15.278Z,6.85
2022-10-10T00:06:19.105Z,6.60
2022-10-10T00:09:21.026Z,7.82
2022-10-10T00:12:22.928Z,5.22
2022-10-10T00:15:24.923Z,9.48
2022-10-10T00:18:26.907Z,5.60
2022-10-10T00:21:28.875Z,7.47
2022-10-10T00:24:30.813Z,6.57
2022-10-10T00:27:32.976Z,12.70
2022-10-10T00:30:34.933Z,7.25
2022-10-10T00:33:37.355Z,5.82
2022-10-10T00:36:39.263Z,9.98
2022-10-10T00:39:41.220Z,6.97
2022-10-10T00:42:43.182Z,7.25
2022-10-10T00:45:45.971Z,8.52
2022-10-10T00:48:47.943Z,4.67
2022-10-10T00:51:51.283Z,5.43
2022-10-10T00:54:53.230Z,7.05
2022-10-10T00:57:55.269Z,5.47
2022-10-10T01:00:57.297Z,6.85
2022-10-10T01:04:00.226Z,5.53
2022-10-10T01:07:04.663Z,6.28
2022-10-10T01:10:08.654Z,5.00
2022-10-10T01:13:15.363Z,7.18
2022-10-10T01:16:26.940Z,7.10
2022-10-10T01:19:31.602Z,4.57
2022-10-10T01:22:52.484Z,6.70
2022-10-10T01:26:12.668Z,4.97
2022-10-10T01:29:14.675Z,4.60
2022-10-10T01:32:20.171Z,5.83
2022-10-10T01:35:37.248Z,4.72
2022-10-10T01:38:45.775Z,7.13
2022-10-10T01:41:50.875Z,6.37
2022-10-10T01:44:54.048Z,7.75
2022-10-10T01:47:58.176Z,5.50
2022-10-10T01:51:14.876Z,13.90
2022-10-10T01:54:16.786Z,11.27
2022-10-10T01:57:19.711Z,6.75
2022-10-10T02:00:21.689Z,7.22
2022-10-10T02:03:27.186Z,7.20
2022-10-10T02:06:31.183Z,7.50
2022-10-10T02:09:37.536Z,5.53
2022-10-10T02:12:39.831Z,5.33
2022-10-10T02:15:44.897Z,6.57
2022-10-10T02:18:47.907Z,7.13
2022-10-10T02:21:51.219Z,6.43
2022-10-10T02:24:53.388Z,7.40
2022-10-10T02:27:58.060Z,7.85
2022-10-10T02:31:03.159Z,7.60
2022-10-10T02:34:08.180Z,8.07
2022-10-10T02:37:12.550Z,11.77
2022-10-10T02:40:16.488Z,8.10
2022-10-10T02:43:19.618Z,9.73
2022-10-10T02:46:21.636Z,7.65
2022-10-10T02:49:24.626Z,9.57
2022-10-10T02:52:26.592Z,8.18
2022-10-10T02:55:28.571Z,9.73
2022-10-10T02:58:30.476Z,12.77
2022-10-10T03:01:32.436Z,8.57
2022-10-10T03:04:34.933Z,7.63
2022-10-10T03:07:36.880Z,6.95
2022-10-10T03:10:39.157Z,6.50
2022-10-10T03:13:41.112Z,8.17
2022-10-10T03:16:43.076Z,9.13
2022-10-10T03:19:45.039Z,9.45
2022-10-10T03:22:46.983Z,9.20
2022-10-10T03:25:48.926Z,10.68
2022-10-10T03:28:51.814Z,8.90
2022-10-10T03:31:53.776Z,7.78
2022-10-10T03:34:55.746Z,8.03
2022-10-10T03:37:58.427Z,8.07
2022-10-10T03:41:00.385Z,9.90
2022-10-10T03:44:02.364Z,9.63
2022-10-10T03:47:04.336Z,9.10
2022-10-10T03:50:06.516Z,10.10
2022-10-10T03:53:08.544Z,6.97
2022-10-10T03:56:10.490Z,8.27
2022-10-10T03:59:12.470Z,7.10
2022-10-10T04:02:14.408Z,8.70
2022-10-10T04:05:16.404Z,7.43
2022-10-10T04:08:18.643Z,7.13
2022-10-10T04:11:20.655Z,9.55
2022-10-10T04:14:22.631Z,10.87
2022-10-10T04:17:24.658Z,12.77
2022-10-10T04:20:26.638Z,10.77
2022-10-10T04:23:28.563Z,10.95
2022-10-10T04:26:30.525Z,10.68
2022-10-10T04:29:32.453Z,10.00
2022-10-10T04:32:34.386Z,10.15
2022-10-10T04:35:37.321Z,10.67
2022-10-10T04:38:39.431Z,12.32
2022-10-10T04:41:41.367Z,10.27
2022-10-10T04:44:43.287Z,17.43
2022-10-10T04:47:45.236Z,12.38
2022-10-10T04:50:51.454Z,14.32
2022-10-10T04:53:53.559Z,17.83
2022-10-10T04:56:55.496Z,12.27
2022-10-10T04:59:57.542Z,11.73
2022-10-10T05:02:59.488Z,14.52
2022-10-10T05:06:01.508Z,11.50
2022-10-10T05:09:03.806Z,15.73
2022-10-10T05:12:05.839Z,14.20
2022-10-10T05:15:07.913Z,10.77
2022-10-10T05:18:09.969Z,8.98
2022-10-10T05:21:12.047Z,11.95
2022-10-10T05:24:14.092Z,10.57
2022-10-10T05:27:16.084Z,9.15
2022-10-10T05:30:18.387Z,10.35
2022-10-10T05:33:20.784Z,11.15
2022-10-10T05:36:22.977Z,9.87
2022-10-10T05:39:25.245Z,13.80
2022-10-10T05:42:27.337Z,13.77
2022-10-10T05:45:31.945Z,10.83
2022-10-10T05:48:33.995Z,14.18
2022-10-10T05:51:36.414Z,12.00
2022-10-10T05:54:39.292Z,10.00
2022-10-10T05:57:41.566Z,15.98
2022-10-10T06:00:45.022Z,11.40
2022-10-10T06:03:52.873Z,14.68
2022-10-10T06:06:55.110Z,8.73
2022-10-10T06:09:57.200Z,17.65
2022-10-10T06:12:59.275Z,13.30
2022-10-10T06:16:01.507Z,15.80
2022-10-10T06:19:03.763Z,13.27
2022-10-10T06:22:05.938Z,11.15
2022-10-10T06:25:23.974Z,9.07
2022-10-10T06:28:31.642Z,11.83
2022-10-10T06:31:34.084Z,10.95
2022-10-10T06:34:36.097Z,10.00
2022-10-10T06:37:38.111Z,8.65
2022-10-10T06:40:40.238Z,7.83
2022-10-10T06:43:42.740Z,11.88
2022-10-10T06:46:46.838Z,8.73
2022-10-10T06:49:49.680Z,14.83
2022-10-10T06:52:52.246Z,12.85
2022-10-10T06:55:55.693Z,10.40
2022-10-10T06:58:57.850Z,6.70
2022-10-10T07:02:00.794Z,7.23
2022-10-10T07:05:02.870Z,7.43
2022-10-10T07:08:04.989Z,7.38
2022-10-10T07:11:07.833Z,13.45
2022-10-10T07:14:09.898Z,16.73
2022-10-10T07:17:11.905Z,11.93
2022-10-10T07:20:14.012Z,7.20
2022-10-10T07:23:16.084Z,12.48
2022-10-10T07:26:22.442Z,10.55
2022-10-10T07:29:24.889Z,9.73
2022-10-10T07:32:26.844Z,8.27
2022-10-10T07:35:28.942Z,9.73
2022-10-10T07:38:30.939Z,10.85
2022-10-10T07:41:33.034Z,10.23
2022-10-10T07:44:35.059Z,14.25
2022-10-10T07:47:37.481Z,7.00
2022-10-10T07:50:42.790Z,5.93
2022-10-10T07:53:44.905Z,6.35
2022-10-10T07:56:47.012Z,8.60
2022-10-10T07:59:49.137Z,6.65
2022-10-10T08:02:52.306Z,7.37
2022-10-10T08:05:54.323Z,8.40
2022-10-10T08:08:56.376Z,8.90
2022-10-10T08:11:58.395Z,7.35
2022-10-10T08:15:00.920Z,5.90
2022-10-10T08:18:02.925Z,7.40
2022-10-10T08:21:06.652Z,8.20
2022-10-10T08:24:08.765Z,10.50
2022-10-10T08:27:10.857Z,4.50
2022-10-10T08:30:13.173Z,7.10
2022-10-10T08:33:15.253Z,5.73
2022-10-10T08:36:18.911Z,6.43
2022-10-10T08:39:28.879Z,6.75
2022-10-10T08:42:34.249Z,5.35
2022-10-10T08:45:38.772Z,7.05
2022-10-10T08:48:41.646Z,6.87
2022-10-10T08:51:47.229Z,7.20
2022-10-10T08:54:49.701Z,8.63
2022-10-10T08:57:53.660Z,10.48
2022-10-10T09:01:01.532Z,6.00
2022-10-10T09:04:05.783Z,6.80
2022-10-10T09:07:22.506Z,15.37
2022-10-10T09:10:39.684Z,9.02
2022-10-10T09:13:54.253Z,5.35
2022-10-10T09:17:00.598Z,5.13
2022-10-10T09:20:17.927Z,10.10
2022-10-10T09:23:32.197Z,7.23
2022-10-10T09:26:37.435Z,6.50
2022-10-10T09:29:46.311Z,7.47
2022-10-10T09:33:03.376Z,5.60
2022-10-10T09:36:08.945Z,4.73
2022-10-10T09:39:17.505Z,12.93
2022-10-10T09:42:26.156Z,5.55
2022-10-10T09:45:30.539Z,7.47
2022-10-10T09:48:34.169Z,16.02
2022-10-10T09:51:36.122Z,5.97
2022-10-10T09:54:38.139Z,8.27
2022-10-10T09:57:42.644Z,4.22
2022-10-10T10:00:44.886Z,5.05
2022-10-10T10:04:23.423Z,3.95
2022-10-10T10:07:32.010Z,4.43
2022-10-10T10:10:35.386Z,8.60
2022-10-10T10:13:37.801Z,9.65
2022-10-10T10:16:39.996Z,4.60
2022-10-10T10:19:44.291Z,6.32
2022-10-10T10:22:47.276Z,6.60
2022-10-10T10:25:57.368Z,7.03
2022-10-10T10:28:59.853Z,3.58
2022-10-10T10:32:21.018Z,8.05
2022-10-10T10:35:41.757Z,6.32
2022-10-10T10:38:46.490Z,4.40
2022-10-10T10:42:09.025Z,5.97
2022-10-10T10:45:29.991Z,4.53
2022-10-10T10:48:35.052Z,5.43
2022-10-10T10:51:45.905Z,8.63
2022-10-10T10:55:03.107Z,4.97
2022-10-10T10:58:48.564Z,5.43
2022-10-10T11:01:56.141Z,6.00
2022-10-10T11:05:24.257Z,3.70
2022-10-10T11:08:41.436Z,6.47
2022-10-10T11:11:49.685Z,6.13
2022-10-10T11:14:55.819Z,6.20
2022-10-10T11:18:16.418Z,4.50
2022-10-10T11:21:23.377Z,5.38
2022-10-10T11:24:25.286Z,6.03
2022-10-10T11:27:34.063Z,5.03
2022-10-10T11:30:39.455Z,6.33
2022-10-10T11:33:45.934Z,9.52
2022-10-10T11:36:48.903Z,4.88
2022-10-10T11:39:54.216Z,4.68
2022-10-10T11:42:59.931Z,3.37
2022-10-10T11:46:14.045Z,5.17
2022-10-10T11:49:23.989Z,4.93
2022-10-10T11:52:37.480Z,6.82
2022-10-10T11:55:45.208Z,4.32
2022-10-10T11:58:50.916Z,6.90
2022-10-10T12:01:55.351Z,5.40
2022-10-10T12:04:57.598Z,6.22
2022-10-10T12:08:18.825Z,4.60
2022-10-10T12:11:27.035Z,4.40
2022-10-10T12:14:31.498Z,5.33
2022-10-10T12:17:34.351Z,4.67
2022-10-10T12:20:37.209Z,3.08
2022-10-10T12:23:41.305Z,3.47
2022-10-10T12:26:52.537Z,5.55
2022-10-10T12:29:57.640Z,6.03
2022-10-10T12:32:59.855Z,6.77
2022-10-10T12:36:16.904Z,5.45
2022-10-10T12:39:18.842Z,5.55
2022-10-10T12:42:31.970Z,13.07
2022-10-10T12:45:34.072Z,5.43
2022-10-10T12:48:36.267Z,4.90
2022-10-10T12:51:38.510Z,3.88
2022-10-10T12:54:42.170Z,5.90
2022-10-10T12:57:45.878Z,4.25
2022-10-10T13:00:48.161Z,10.00
2022-10-10T13:03:50.685Z,13.77
2022-10-10T13:06:55.359Z,8.07
2022-10-10T13:10:04.863Z,4.97
2022-10-10T13:13:15.967Z,4.25
2022-10-10T13:16:19.439Z,4.97
2022-10-10T13:19:23.243Z,9.07
2022-10-10T13:22:25.466Z,7.70
2022-10-10T13:25:27.512Z,7.30
2022-10-10T13:28:29.843Z,8.70
2022-10-10T13:31:31.952Z,7.53
2022-10-10T13:34:35.783Z,4.93
2022-10-10T13:37:37.812Z,6.03
2022-10-10T13:40:42.038Z,13.90
2022-10-10T13:43:44.074Z,11.15
2022-10-10T13:46:46.083Z,10.03
2022-10-10T13:49:55.587Z,5.30
2022-10-10T13:53:16.087Z,6.82
2022-10-10T13:56:21.294Z,6.30
2022-10-10T13:59:24.431Z,9.93
2022-10-10T14:02:29.932Z,11.10
2022-10-10T14:05:32.244Z,9.07
2022-10-10T14:08:34.209Z,9.00
2022-10-10T14:11:36.351Z,16.08
2022-10-10T14:14:46.575Z,6.03
2022-10-10T14:17:51.715Z,5.70
2022-10-10T14:20:53.747Z,8.23
2022-10-10T14:23:55.716Z,13.27
2022-10-10T14:26:58.247Z,9.18
2022-10-10T14:30:00.249Z,7.32
2022-10-10T14:33:02.354Z,8.23
2022-10-10T14:36:04.555Z,14.40
2022-10-10T14:39:06.630Z,17.70
2022-10-10T14:42:11.372Z,11.50
2022-10-10T14:45:14.982Z,8.90
2022-10-10T14:48:16.889Z,9.20
2022-10-10T14:51:33.315Z,7.33
2022-10-10T14:54:36.673Z,5.60
2022-10-10T14:57:38.946Z,6.85
2022-10-10T15:00:40.848Z,8.52
2022-10-10T15:03:42.804Z,17.50
2022-10-10T15:07:08.348Z,17.17
2022-10-10T15:13:29.209Z,15.95
2022-10-10T15:16:31.763Z,13.65
2022-10-10T15:19:33.715Z,12.30
2022-10-10T15:22:36.179Z,10.80
2022-10-10T15:25:41.783Z,12.73
2022-10-10T15:28:43.767Z,8.80
2022-10-10T15:31:45.783Z,17.13
2022-10-10T15:34:48.859Z,10.77
2022-10-10T15:37:50.936Z,9.67
2022-10-10T15:40:58.741Z,11.23
2022-10-10T15:44:00.716Z,12.27
2022-10-10T15:47:02.679Z,20.67
2022-10-10T15:50:04.887Z,15.83
2022-10-10T15:53:06.865Z,12.50
2022-10-10T15:56:10.319Z,16.70
2022-10-10T15:59:13.954Z,45.78
2022-10-10T16:02:16.478Z,29.45
2022-10-10T16:05:18.419Z,25.90
2022-10-10T16:08:20.427Z,19.20
2022-10-10T16:11:23.689Z,19.70
2022-10-10T16:14:25.889Z,17.77
2022-10-10T16:17:27.851Z,20.00
2022-10-10T16:20:29.834Z,18.07
2022-10-10T16:23:32.053Z,16.83
2022-10-10T16:26:35.484Z,18.80
2022-10-10T16:29:38.781Z,19.98
2022-10-10T16:32:42.629Z,19.45
2022-10-10T16:35:44.857Z,23.20
2022-10-10T16:38:46.874Z,26.90
2022-10-10T16:41:49.435Z,31.40
2022-10-10T16:44:51.586Z,45.92
2022-10-10T16:47:53.536Z,37.70
2022-10-10T16:50:55.505Z,43.53
2022-10-10T16:53:59.931Z,35.23
2022-10-10T16:57:02.268Z,39.10
2022-10-10T17:00:05.771Z,58.40
2022-10-10T17:03:07.851Z,96.35
2022-10-10T17:06:13.118Z,98.77
2022-10-10T17:09:17.066Z,81.27
2022-10-10T17:12:19.631Z,74.57
2022-10-10T17:15:21.592Z,64.07
2022-10-10T17:18:23.536Z,58.58
2022-10-10T17:21:25.573Z,48.27
2022-10-10T17:24:27.523Z,52.47
2022-10-10T17:27:29.467Z,46.03
2022-10-10T17:30:31.371Z,51.75
2022-10-10T17:33:33.299Z,52.88
2022-10-10T17:36:35.256Z,63.70
2022-10-10T17:39:37.365Z,67.07
2022-10-10T17:42:39.291Z,61.78
2022-10-10T17:45:41.264Z,68.93
2022-10-10T17:48:43.551Z,70.30
2022-10-10T17:51:45.494Z,69.17
2022-10-10T17:54:47.423Z,74.73
2022-10-10T17:57:49.471Z,67.57
2022-10-10T18:00:51.530Z,67.97
2022-10-10T18:03:53.643Z,61.75
2022-10-10T18:06:55.604Z,60.40
2022-10-10T18:09:57.573Z,72.87
2022-10-10T18:13:00.094Z,65.18
2022-10-10T18:16:07.243Z,43.03
2022-10-10T18:19:10.431Z,42.00
2022-10-10T18:22:12.400Z,31.87
2022-10-10T18:25:14.332Z,31.07
2022-10-10T18:28:16.312Z,46.78
2022-10-10T18:31:19.609Z,26.98
2022-10-10T18:34:21.576Z,28.30
2022-10-10T18:37:23.507Z,31.50
2022-10-10T18:40:25.456Z,26.23
2022-10-10T18:43:28.198Z,28.25
2022-10-10T18:46:30.551Z,19.35
2022-10-10T18:49:32.528Z,34.60
2022-10-10T18:52:34.950Z,30.50
2022-10-10T18:55:37.906Z,32.93
2022-10-10T18:58:39.956Z,25.05
2022-10-10T19:01:44.141Z,33.67
2022-10-10T19:04:47.896Z,25.70
2022-10-10T19:07:49.842Z,25.43
2022-10-10T19:10:51.946Z,21.60
2022-10-10T19:13:54.034Z,20.15
2022-10-10T19:16:55.993Z,22.10
2022-10-10T19:19:57.935Z,23.73
2022-10-10T19:23:00.262Z,23.87
2022-10-10T19:26:03.741Z,30.57
2022-10-10T19:29:07.335Z,20.30
2022-10-10T19:32:09.509Z,27.25
2022-10-10T19:35:11.455Z,23.00
2022-10-10T19:38:13.514Z,23.77
2022-10-10T19:41:15.894Z,27.45
2022-10-10T19:44:17.904Z,22.35
2022-10-10T19:47:19.921Z,27.05
2022-10-10T19:50:21.915Z,24.83
2022-10-10T19:53:23.827Z,26.03
2022-10-10T19:56:26.065Z,26.50
2022-10-10T19:59:28.600Z,35.25
2022-10-10T20:02:30.558Z,38.08
2022-10-10T20:05:32.495Z,26.00
2022-10-10T20:08:34.511Z,29.00
2022-10-10T20:11:36.893Z,28.75
2022-10-10T20:14:38.875Z,27.20
2022-10-10T20:17:41.428Z,24.92
2022-10-10T20:20:44.300Z,24.10
2022-10-10T20:23:46.886Z,22.97
2022-10-10T20:26:48.816Z,19.35
2022-10-10T20:29:50.778Z,17.17
2022-10-10T20:32:52.690Z,16.20
2022-10-10T20:35:56.171Z,15.63
2022-10-10T20:39:00.555Z,16.13
2022-10-10T20:42:02.567Z,18.50
2022-10-10T20:45:08.013Z,15.52
2022-10-10T20:48:12.476Z,20.17
2022-10-10T20:51:14.444Z,14.93
2022-10-10T20:54:17.535Z,15.20
2022-10-10T20:57:19.467Z,19.25
2022-10-10T21:00:21.540Z,18.60
2022-10-10T21:03:23.450Z,18.10
2022-10-10T21:06:29.632Z,15.57
2022-10-10T21:09:32.864Z,17.38
2022-10-10T21:12:34.790Z,15.23
2022-10-10T21:15:36.730Z,14.15
2022-10-10T21:18:38.684Z,14.68
2022-10-10T21:21:40.724Z,19.00
2022-10-10T21:24:42.664Z,15.20
2022-10-10T21:27:44.574Z,15.48
2022-10-10T21:30:47.607Z,16.35
2022-10-10T21:33:49.773Z,21.42
2022-10-10T21:36:51.797Z,18.10
2022-10-10T21:39:53.736Z,18.73
2022-10-10T21:42:55.666Z,17.85
2022-10-10T21:46:04.725Z,15.05
2022-10-10T21:49:08.458Z,17.70
2022-10-10T21:52:10.470Z,13.23
2022-10-10T21:55:12.375Z,17.30
2022-10-10T21:58:14.319Z,17.17
2022-10-10T22:01:17.756Z,17.13
2022-10-10T22:04:19.763Z,15.30
2022-10-10T22:07:21.716Z,18.60
2022-10-10T22:10:23.639Z,15.15
2022-10-10T22:13:25.687Z,14.48
2022-10-10T22:16:27.929Z,14.73
2022-10-10T22:19:29.875Z,18.97
2022-10-10T22:22:31.879Z,14.83
2022-10-10T22:25:33.893Z,13.57
2022-10-10T22:28:35.988Z,16.27
2022-10-10T22:31:38.141Z,14.80
2022-10-10T22:34:40.142Z,14.47
2022-10-10T22:37:42.137Z,15.50
2022-10-10T22:40:44.088Z,14.15
2022-10-10T22:43:46.029Z,14.75
2022-10-10T22:46:47.998Z,13.60
2022-10-10T22:49:49.928Z,16.70
2022-10-10T22:52:51.902Z,13.33
2022-10-10T22:55:53.846Z,13.68
2022-10-10T22:58:55.848Z,17.15
2022-10-10T23:01:57.803Z,12.48
2022-10-10T23:05:00.785Z,17.27
2022-10-10T23:08:02.752Z,12.83
2022-10-10T23:11:04.696Z,15.85
2022-10-10T23:14:06.614Z,16.58
2022-10-10T23:17:08.586Z,17.08
2022-10-10T23:20:10.640Z,17.17
2022-10-10T23:23:12.870Z,12.47
2022-10-10T23:26:14.821Z,18.83
2022-10-10T23:29:16.821Z,15.55
2022-10-10T23:32:18.754Z,15.20
2022-10-10T23:35:20.725Z,13.30
2022-10-10T23:38:22.641Z,14.47
2022-10-10T23:41:24.641Z,12.50
2022-10-10T23:44:26.600Z,17.15
2022-10-10T23:47:28.546Z,17.52
2022-10-10T23:50:30.463Z,13.93
2022-10-10T23:53:32.933Z,20.37
2022-10-10T23:56:34.945Z,18.05
2022-10-10T23:59:36.891Z,16.33
